Terminal Aerodrome Forecast
Issued by NWS

Home | Current Version | Previous Version | Text Only | Print | Product List | Glossary On
Versions: 1 2 3 4 5 6 7 8 9 10 11 12 13 14 15 16 17 18 19 20
517
FTUS42 KFFC 242203 AAB
TAFFTY
TAF AMD
KFTY 242203Z 2422/2518 22004KT P6SM VCSH SCT050
      TEMPO 2422/2423 VRB15G25KT 5SM -TSRA BKN035CB
     FM250200 00000KT P6SM SCT250
     FM251500 25003KT P6SM SCT035=

USA.gov is the U.S. government's official web portal to all federal, state and local government web resources and services.